Time;durP1;ratioP1;P1;durP2;ratioP2;P2;SDS_P1;SDS_P2;PMS_P1;PMS_P2;Temp;Humidity;BMP_temperature;BMP_pressure;BME280_temperature;BME280_humidity;BME280_pressure;Samples;Min_cycle;Max_cycle;Signal;HPM_P1;HPM_P2
2023/05/18 00:00:15;;;;;;;32.03;7.40;;;19.30;53.90;;;;;;6216424;23;20160;-85
2023/05/18 00:02:42;;;;;;;27.27;6.87;;;19.30;53.90;;;;;;6214222;23;20172;-85
2023/05/18 00:05:10;;;;;;;20.63;5.93;;;19.30;53.90;;;;;;6213905;23;20202;-85
2023/05/18 00:07:38;;;;;;;21.70;5.87;;;19.30;53.90;;;;;;6214159;23;20194;-85
2023/05/18 00:10:06;;;;;;;23.23;5.80;;;19.30;54.00;;;;;;6213661;23;20179;-85
2023/05/18 00:12:33;;;;;;;17.87;5.93;;;19.20;53.90;;;;;;6215211;23;20673;-85
2023/05/18 00:15:02;;;;;;;24.27;6.20;;;19.20;53.90;;;;;;6213964;23;20663;-85
2023/05/18 00:17:31;;;;;;;38.07;7.70;;;19.30;54.00;;;;;;6186341;23;20432;-85
2023/05/18 00:19:59;;;;;;;31.17;6.37;;;19.20;53.90;;;;;;6213633;23;20695;-85
2023/05/18 00:22:28;;;;;;;22.63;6.40;;;19.20;53.90;;;;;;6211341;23;20173;-85
2023/05/18 00:24:55;;;;;;;19.20;5.73;;;19.20;53.90;;;;;;6213676;23;20572;-85
2023/05/18 00:27:22;;;;;;;35.73;6.70;;;19.10;53.80;;;;;;6213556;23;20231;-85
2023/05/18 00:29:51;;;;;;;44.00;7.97;;;19.20;53.90;;;;;;6213530;23;20168;-86
2023/05/18 00:32:22;;;;;;;46.63;7.60;;;19.20;53.90;;;;;;6211777;23;20582;-85
2023/05/18 00:34:51;;;;;;;12.57;4.97;;;19.20;53.90;;;;;;6218565;23;20219;-85
2023/05/18 00:37:18;;;;;;;22.93;6.13;;;19.10;53.80;;;;;;6217411;23;20863;-85
2023/05/18 00:39:45;;;;;;;19.83;5.67;;;19.10;53.80;;;;;;6213331;23;20238;-85
2023/05/18 00:42:14;;;;;;;26.83;6.47;;;19.10;53.90;;;;;;6210250;23;20601;-85
2023/05/18 00:44:42;;;;;;;30.50;6.70;;;19.00;53.80;;;;;;6210278;23;20168;-85
2023/05/18 00:47:10;;;;;;;23.17;6.20;;;19.00;53.80;;;;;;6211527;23;20194;-85
2023/05/18 00:49:37;;;;;;;27.43;6.30;;;19.00;53.80;;;;;;6211516;23;20165;-85
2023/05/18 00:52:06;;;;;;;19.77;5.77;;;19.00;53.80;;;;;;6210726;23;20203;-85
2023/05/18 00:54:37;;;;;;;31.43;6.90;;;19.00;53.80;;;;;;6212082;23;20208;-85
2023/05/18 00:57:05;;;;;;;13.53;4.70;;;19.00;53.80;;;;;;6213051;23;20620;-85
2023/05/18 00:59:36;;;;;;;20.40;5.67;;;18.90;53.70;;;;;;6212921;23;20202;-85
2023/05/18 01:02:03;;;;;;;20.40;5.57;;;18.90;53.80;;;;;;6215212;23;20199;-85
2023/05/18 01:04:32;;;;;;;23.10;5.60;;;18.80;53.70;;;;;;6204759;23;20180;-85
2023/05/18 01:07:05;;;;;;;45.57;7.60;;;18.90;53.70;;;;;;6215083;23;20171;-85
2023/05/18 01:09:40;;;;;;;18.93;6.00;;;18.90;53.80;;;;;;6216172;23;20160;-85
2023/05/18 01:12:13;;;;;;;20.30;5.63;;;18.90;53.70;;;;;;6213847;23;20190;-85
2023/05/18 01:14:49;;;;;;;23.47;5.77;;;18.90;53.70;;;;;;6213571;23;20164;-85
2023/05/18 01:17:32;;;;;;;24.60;5.93;;;18.80;53.70;;;;;;6188099;23;20164;-85
2023/05/18 01:20:19;;;;;;;31.33;6.80;;;18.80;53.70;;;;;;6211211;23;20262;-85
2023/05/18 01:23:01;;;;;;;16.23;4.90;;;18.80;53.70;;;;;;6211937;23;20206;-85
2023/05/18 01:25:53;;;;;;;40.67;7.60;;;18.80;53.70;;;;;;6210208;23;20621;-85
2023/05/18 01:28:25;;;;;;;28.07;6.17;;;18.70;53.60;;;;;;6212932;23;20247;-85
2023/05/18 01:30:56;;;;;;;24.57;5.77;;;18.80;53.70;;;;;;6212517;23;20164;-85
2023/05/18 01:33:24;;;;;;;38.03;6.77;;;18.70;53.70;;;;;;6212296;23;20271;-85
2023/05/18 01:35:57;;;;;;;38.97;6.53;;;18.70;53.70;;;;;;6213657;23;20165;-85
2023/05/18 01:38:27;;;;;;;24.90;6.10;;;18.70;53.60;;;;;;6215436;23;20192;-85
2023/05/18 01:41:03;;;;;;;28.10;6.20;;;18.70;53.70;;;;;;6215672;23;20222;-85
2023/05/18 01:43:36;;;;;;;26.07;6.13;;;18.60;53.60;;;;;;6216049;23;20620;-86
2023/05/18 01:46:09;;;;;;;35.97;6.70;;;18.70;53.70;;;;;;6214852;23;20255;-85
2023/05/18 01:48:44;;;;;;;26.83;5.90;;;18.60;53.60;;;;;;6213621;23;20230;-86
2023/05/18 01:51:18;;;;;;;24.67;5.70;;;18.60;53.60;;;;;;6214249;23;20199;-85
2023/05/18 01:53:51;;;;;;;21.27;5.97;;;18.60;53.60;;;;;;6213927;23;20199;-85
2023/05/18 01:56:25;;;;;;;20.70;5.87;;;18.60;53.60;;;;;;6214184;23;20206;-85
2023/05/18 01:58:57;;;;;;;18.40;5.17;;;18.60;53.70;;;;;;6215210;23;20167;-85
2023/05/18 02:01:25;;;;;;;24.70;5.97;;;18.60;53.60;;;;;;6214338;23;20218;-85
2023/05/18 02:03:52;;;;;;;24.80;5.83;;;18.60;53.70;;;;;;6213150;23;20263;-85
2023/05/18 02:06:20;;;;;;;27.23;6.30;;;18.50;53.60;;;;;;6213858;23;20215;-85
2023/05/18 02:08:48;;;;;;;23.03;6.07;;;18.50;53.60;;;;;;6212921;23;20195;-85
2023/05/18 02:11:17;;;;;;;22.83;5.70;;;18.50;53.60;;;;;;6214589;23;20172;-85
2023/05/18 02:13:44;;;;;;;20.43;5.50;;;18.50;53.60;;;;;;6216022;23;20491;-85
2023/05/18 02:16:14;;;;;;;43.83;7.30;;;18.50;53.60;;;;;;6212730;23;20183;-85
2023/05/18 02:18:45;;;;;;;26.20;6.07;;;18.50;53.60;;;;;;6214331;23;20168;-85
2023/05/18 02:21:17;;;;;;;32.43;6.50;;;18.40;53.50;;;;;;6214790;23;20172;-85
2023/05/18 02:23:44;;;;;;;31.73;7.00;;;18.50;53.60;;;;;;6213829;23;20628;-85
2023/05/18 02:26:11;;;;;;;27.03;6.37;;;18.40;53.60;;;;;;6213327;23;20183;-85
2023/05/18 02:28:40;;;;;;;47.67;7.77;;;18.40;53.60;;;;;;6212617;23;20172;-85
2023/05/18 02:31:08;;;;;;;24.37;5.93;;;18.40;53.50;;;;;;6211710;23;20193;-86
2023/05/18 02:33:39;;;;;;;38.37;7.37;;;18.40;53.60;;;;;;6215039;23;20249;-86
2023/05/18 02:36:09;;;;;;;23.33;5.80;;;18.30;53.40;;;;;;6218972;23;20244;-85
2023/05/18 02:38:38;;;;;;;38.63;7.27;;;18.40;53.60;;;;;;6214691;23;20167;-86
2023/05/18 02:41:06;;;;;;;19.47;6.00;;;18.40;53.60;;;;;;6215411;23;20617;-86
2023/05/18 02:43:34;;;;;;;23.73;5.77;;;18.30;53.50;;;;;;6218286;23;20176;-86
2023/05/18 02:46:01;;;;;;;23.73;5.73;;;18.30;53.50;;;;;;6214743;23;20243;-85
2023/05/18 02:48:28;;;;;;;32.30;6.43;;;18.30;53.50;;;;;;6215407;23;20164;-86
2023/05/18 02:50:57;;;;;;;31.10;6.43;;;18.30;53.50;;;;;;6212757;23;20171;-86
2023/05/18 02:53:25;;;;;;;29.67;6.67;;;18.30;53.50;;;;;;6214395;23;20200;-86
2023/05/18 02:55:56;;;;;;;20.20;5.40;;;18.20;53.50;;;;;;6213868;23;20196;-86
2023/05/18 02:58:24;;;;;;;28.90;6.30;;;18.20;53.40;;;;;;6215944;23;20165;-85
2023/05/18 03:00:53;;;;;;;18.07;5.53;;;18.20;53.40;;;;;;6214159;23;20177;-85
2023/05/18 03:03:22;;;;;;;23.30;6.07;;;18.20;53.50;;;;;;6213586;23;20247;-85
2023/05/18 03:05:51;;;;;;;16.77;5.03;;;18.20;53.50;;;;;;6214911;23;20168;-85
2023/05/18 03:08:20;;;;;;;21.33;5.63;;;18.20;53.50;;;;;;6215646;23;20191;-85
2023/05/18 03:10:47;;;;;;;20.73;6.07;;;18.20;53.40;;;;;;6213605;23;20169;-85
2023/05/18 03:13:14;;;;;;;17.77;5.67;;;18.10;53.40;;;;;;6212864;23;20195;-85
2023/05/18 03:15:46;;;;;;;47.90;7.80;;;18.10;53.40;;;;;;6212297;23;20263;-86
2023/05/18 03:18:13;;;;;;;34.03;6.23;;;18.10;54.00;;;;;;6214646;23;20192;-85
2023/05/18 03:20:43;;;;;;;29.40;6.10;;;18.10;53.40;;;;;;6215594;23;20175;-86
2023/05/18 03:23:10;;;;;;;29.20;6.10;;;18.10;53.40;;;;;;6213564;23;20165;-85
2023/05/18 03:25:39;;;;;;;38.73;6.93;;;18.10;53.40;;;;;;6212958;23;20187;-86
2023/05/18 03:28:07;;;;;;;32.87;6.50;;;18.10;53.40;;;;;;6212662;23;20227;-85
2023/05/18 03:30:37;;;;;;;27.70;6.23;;;18.10;53.40;;;;;;6215458;23;20656;-85
2023/05/18 03:33:05;;;;;;;31.57;6.17;;;18.00;53.40;;;;;;6212259;23;20219;-85
2023/05/18 03:35:32;;;;;;;25.20;5.77;;;18.00;53.40;;;;;;6212991;23;20191;-85
2023/05/18 03:38:00;;;;;;;20.87;5.00;;;18.00;53.40;;;;;;6212694;23;20492;-85
2023/05/18 03:40:28;;;;;;;28.47;6.13;;;18.00;53.40;;;;;;6212221;23;20206;-85
2023/05/18 03:43:02;;;;;;;19.23;5.10;;;18.00;53.40;;;;;;6212938;23;20171;-86
2023/05/18 03:45:29;;;;;;;19.77;5.07;;;18.00;53.30;;;;;;6212669;23;20220;-85
2023/05/18 03:47:57;;;;;;;21.33;5.43;;;17.90;53.30;;;;;;6212774;23;20188;-85
2023/05/18 03:50:24;;;;;;;25.00;5.40;;;17.90;53.30;;;;;;6211494;23;20175;-85
2023/05/18 03:52:57;;;;;;;17.30;4.77;;;17.90;53.30;;;;;;6212183;23;20657;-85
2023/05/18 03:55:28;;;;;;;21.80;5.37;;;17.90;53.30;;;;;;6210679;23;20278;-85
2023/05/18 03:57:57;;;;;;;21.17;5.03;;;17.90;53.30;;;;;;6211705;23;20169;-85
2023/05/18 04:00:26;;;;;;;28.23;6.13;;;17.90;53.30;;;;;;6211260;23;20243;-86
2023/05/18 04:02:53;;;;;;;29.27;5.87;;;17.80;53.90;;;;;;6212587;23;20679;-86
2023/05/18 04:05:21;;;;;;;25.03;5.83;;;17.80;53.30;;;;;;6213960;23;20178;-86
2023/05/18 04:07:48;;;;;;;42.47;6.73;;;17.80;53.30;;;;;;6212712;23;20552;-86
2023/05/18 04:10:16;;;;;;;61.90;8.80;;;17.80;53.30;;;;;;6211973;23;20168;-85
2023/05/18 04:12:43;;;;;;;35.57;6.67;;;17.80;53.30;;;;;;6211294;23;20184;-86
2023/05/18 04:15:13;;;;;;;53.70;8.27;;;17.80;53.30;;;;;;6211771;23;20168;-86
2023/05/18 04:17:44;;;;;;;32.70;6.13;;;17.80;53.30;;;;;;6213531;23;20187;-86
2023/05/18 04:20:12;;;;;;;34.13;6.40;;;17.70;53.20;;;;;;6212353;23;20177;-86
2023/05/18 04:22:45;;;;;;;23.40;5.60;;;17.70;53.20;;;;;;6215020;23;20178;-85
2023/05/18 04:25:12;;;;;;;23.10;5.47;;;17.70;53.20;;;;;;6215060;23;20207;-85
2023/05/18 04:27:40;;;;;;;27.87;6.17;;;17.70;53.20;;;;;;6215919;23;20183;-86
2023/05/18 04:30:11;;;;;;;19.20;5.00;;;17.70;53.20;;;;;;6187050;23;20259;-86
2023/05/18 04:32:49;;;;;;;19.37;5.07;;;17.70;53.30;;;;;;6214625;23;20227;-86
2023/05/18 04:35:17;;;;;;;20.60;5.47;;;17.60;53.20;;;;;;6214036;23;20171;-85
2023/05/18 04:37:44;;;;;;;27.23;6.30;;;17.60;53.20;;;;;;6211811;23;20195;-86
2023/05/18 04:40:15;;;;;;;17.73;5.03;;;17.60;53.20;;;;;;6214284;23;20226;-86
2023/05/18 04:42:47;;;;;;;21.77;5.40;;;17.60;53.20;;;;;;6213721;23;20175;-86
2023/05/18 04:45:18;;;;;;;14.73;5.23;;;17.60;53.20;;;;;;6187027;23;20644;-86
2023/05/18 04:47:51;;;;;;;33.43;6.47;;;17.60;53.20;;;;;;6212605;23;20227;-87
2023/05/18 04:50:22;;;;;;;19.60;5.77;;;17.60;53.30;;;;;;6214952;23;20616;-86
2023/05/18 04:52:51;;;;;;;38.63;6.83;;;17.60;53.30;;;;;;6213916;23;20213;-87
2023/05/18 04:55:24;;;;;;;16.63;5.27;;;17.60;53.30;;;;;;6215429;23;20323;-86
2023/05/18 04:57:55;;;;;;;35.93;6.47;;;17.50;53.20;;;;;;6212796;23;20250;-87
2023/05/18 05:00:24;;;;;;;18.37;5.43;;;17.50;53.20;;;;;;6214482;23;20210;-87
2023/05/18 05:02:56;;;;;;;23.33;5.70;;;17.50;53.20;;;;;;6215096;23;20275;-87
2023/05/18 05:05:24;;;;;;;19.20;4.97;;;17.50;53.20;;;;;;6214121;23;20260;-86
2023/05/18 05:07:51;;;;;;;33.83;6.40;;;17.50;53.30;;;;;;6213217;23;20178;-87
2023/05/18 05:10:20;;;;;;;20.13;5.60;;;17.50;53.20;;;;;;6213786;23;20206;-87
2023/05/18 05:12:50;;;;;;;22.27;5.20;;;17.50;53.30;;;;;;6213683;23;20472;-87
2023/05/18 05:15:19;;;;;;;17.70;4.97;;;17.50;53.30;;;;;;6221429;23;20198;-87
2023/05/18 05:17:47;;;;;;;43.37;7.00;;;17.50;53.30;;;;;;6221429;23;20169;-87
2023/05/18 05:20:17;;;;;;;20.77;5.27;;;17.50;53.30;;;;;;6227304;23;20174;-87
2023/05/18 05:22:50;;;;;;;21.00;5.73;;;17.50;53.30;;;;;;6226182;23;20175;-86
2023/05/18 05:25:18;;;;;;;14.83;4.97;;;17.50;53.30;;;;;;6220701;23;20183;-87
2023/05/18 05:27:46;;;;;;;26.37;5.70;;;17.50;53.30;;;;;;6217417;23;20187;-87
2023/05/18 05:30:14;;;;;;;22.17;5.93;;;17.50;53.30;;;;;;6212613;23;20180;-87
2023/05/18 05:32:42;;;;;;;26.10;5.23;;;17.40;53.30;;;;;;6211063;23;20179;-87
2023/05/18 05:35:10;;;;;;;24.73;5.83;;;17.40;53.30;;;;;;6213627;23;20171;-87
2023/05/18 05:37:41;;;;;;;33.53;6.37;;;17.40;53.30;;;;;;6211769;23;20190;-87
2023/05/18 05:40:09;;;;;;;43.33;7.40;;;17.40;53.30;;;;;;6213708;23;20201;-87
2023/05/18 05:42:36;;;;;;;32.13;6.57;;;17.40;53.30;;;;;;6186848;23;20279;-87
2023/05/18 05:45:07;;;;;;;34.97;6.57;;;17.40;53.40;;;;;;6224157;23;20222;-87
2023/05/18 05:47:34;;;;;;;32.10;6.57;;;17.40;53.40;;;;;;6218654;23;20186;-87
2023/05/18 05:50:01;;;;;;;25.73;6.03;;;17.40;53.40;;;;;;6188795;23;20167;-86
2023/05/18 05:52:28;;;;;;;24.60;5.83;;;17.40;53.40;;;;;;6214172;23;20167;-87
2023/05/18 05:54:57;;;;;;;23.40;5.97;;;17.30;53.30;;;;;;6211355;23;20211;-87
2023/05/18 05:57:24;;;;;;;27.83;5.83;;;17.40;53.50;;;;;;6211227;23;20924;-87
2023/05/18 05:59:51;;;;;;;24.27;5.93;;;17.40;53.50;;;;;;6212899;23;20172;-87
2023/05/18 06:02:18;;;;;;;17.27;4.90;;;17.40;53.50;;;;;;6213205;23;20171;-87
2023/05/18 06:04:45;;;;;;;26.67;6.23;;;17.40;53.50;;;;;;6212714;23;20692;-86
2023/05/18 06:07:13;;;;;;;23.57;5.30;;;17.30;53.40;;;;;;6214272;23;20246;-87
2023/05/18 06:09:42;;;;;;;18.90;5.47;;;17.40;53.50;;;;;;6221288;23;20176;-87
2023/05/18 06:12:14;;;;;;;27.13;6.13;;;17.40;53.50;;;;;;6219151;23;20255;-87
2023/05/18 06:14:42;;;;;;;27.50;6.23;;;17.30;53.40;;;;;;6218637;23;20203;-87
2023/05/18 06:17:10;;;;;;;23.30;6.17;;;17.30;54.00;;;;;;6220567;23;20179;-87
2023/05/18 06:19:38;;;;;;;30.47;5.87;;;17.40;53.50;;;;;;6219295;23;20172;-87
2023/05/18 06:22:05;;;;;;;30.60;6.33;;;17.40;53.50;;;;;;6218297;23;20168;-87
2023/05/18 06:24:35;;;;;;;32.93;6.90;;;17.30;53.40;;;;;;6219551;23;20182;-86
2023/05/18 06:27:02;;;;;;;37.07;6.93;;;17.40;53.50;;;;;;6215583;23;20180;-86
2023/05/18 06:29:31;;;;;;;19.83;5.47;;;17.40;53.50;;;;;;6214404;23;20174;-87
2023/05/18 06:32:05;;;;;;;26.87;6.00;;;17.40;53.50;;;;;;6214385;23;20253;-87
2023/05/18 06:34:33;;;;;;;27.37;5.70;;;17.30;53.40;;;;;;6215205;23;20256;-87
2023/05/18 06:37:00;;;;;;;37.47;7.07;;;17.30;53.40;;;;;;6213646;23;20168;-87
2023/05/18 06:39:27;;;;;;;31.47;6.43;;;17.30;53.40;;;;;;6214967;23;20631;-87
2023/05/18 06:41:54;;;;;;;35.87;7.03;;;17.40;53.50;;;;;;6213938;23;20202;-88
2023/05/18 06:44:22;;;;;;;36.20;6.83;;;17.40;53.50;;;;;;6214292;23;20168;-87
2023/05/18 06:46:51;;;;;;;22.47;5.60;;;17.40;53.50;;;;;;6213632;23;20201;-87
2023/05/18 06:49:18;;;;;;;24.47;6.07;;;17.40;53.60;;;;;;6211736;23;20215;-87
2023/05/18 06:51:45;;;;;;;27.90;6.30;;;17.40;53.50;;;;;;6212506;23;20199;-87
2023/05/18 06:54:12;;;;;;;34.67;6.40;;;17.40;53.50;;;;;;6212446;23;20221;-89
2023/05/18 06:56:39;;;;;;;24.40;5.90;;;17.40;54.10;;;;;;6212556;23;20594;-86
2023/05/18 06:59:06;;;;;;;19.93;5.57;;;17.40;53.50;;;;;;6214071;23;20229;-87
2023/05/18 07:01:34;;;;;;;29.43;6.30;;;17.40;53.50;;;;;;6210738;23;20246;-87
2023/05/18 07:04:02;;;;;;;25.93;6.13;;;17.40;53.60;;;;;;6210845;23;20183;-87
2023/05/18 07:06:30;;;;;;;28.40;6.03;;;17.40;53.50;;;;;;6211628;23;20175;-87
2023/05/18 07:09:03;;;;;;;32.63;6.70;;;17.50;53.60;;;;;;6212232;23;20209;-87
2023/05/18 07:11:30;;;;;;;42.73;7.23;;;17.50;53.60;;;;;;6213716;23;20171;-87
2023/05/18 07:13:57;;;;;;;36.17;7.30;;;17.50;53.60;;;;;;6187353;23;20199;-87
2023/05/18 07:16:27;;;;;;;26.10;5.77;;;17.50;53.60;;;;;;6212875;23;20648;-87
2023/05/18 07:18:57;;;;;;;23.93;6.00;;;17.50;53.60;;;;;;6212502;23;20180;-87
2023/05/18 07:21:27;;;;;;;51.40;7.70;;;17.50;53.60;;;;;;6211308;23;20974;-87
2023/05/18 07:23:54;;;;;;;35.03;7.13;;;17.50;53.60;;;;;;6212379;23;20549;-87
2023/05/18 07:26:22;;;;;;;38.97;7.50;;;17.50;53.60;;;;;;6212534;23;20214;-86
2023/05/18 07:28:50;;;;;;;31.27;6.87;;;17.50;53.60;;;;;;6212769;23;20541;-87
2023/05/18 07:31:17;;;;;;;39.00;7.43;;;17.50;53.60;;;;;;6214021;23;20651;-87
2023/05/18 07:33:47;;;;;;;22.87;5.97;;;17.50;53.60;;;;;;6224050;23;20253;-87
2023/05/18 07:36:15;;;;;;;15.53;5.80;;;17.50;53.60;;;;;;6222725;23;20200;-87
2023/05/18 07:38:43;;;;;;;21.80;5.40;;;17.60;53.70;;;;;;6221411;23;20171;-87
2023/05/18 07:41:13;;;;;;;20.20;5.53;;;17.60;53.70;;;;;;6218731;23;20172;-87
2023/05/18 07:43:41;;;;;;;36.13;7.13;;;17.60;53.70;;;;;;6220622;23;20183;-87
2023/05/18 07:46:09;;;;;;;20.20;5.63;;;17.60;54.30;;;;;;6218171;23;20206;-87
2023/05/18 07:48:37;;;;;;;26.20;5.77;;;17.60;53.70;;;;;;6164061;23;20555;-87
2023/05/18 07:51:05;;;;;;;21.43;5.40;;;17.60;53.70;;;;;;6213916;23;20181;-86
2023/05/18 07:53:32;;;;;;;30.90;6.47;;;17.60;53.70;;;;;;6210498;23;20167;-87
2023/05/18 07:56:01;;;;;;;24.47;5.60;;;17.60;53.70;;;;;;6213054;23;20241;-87
2023/05/18 07:58:28;;;;;;;20.00;5.33;;;17.60;53.70;;;;;;6214858;23;20203;-87
2023/05/18 08:00:55;;;;;;;31.13;6.43;;;17.60;53.70;;;;;;6215619;23;20605;-87
2023/05/18 08:03:23;;;;;;;24.07;5.67;;;17.70;54.40;;;;;;6215659;23;20172;-86
2023/05/18 08:05:56;;;;;;;27.47;5.97;;;17.70;53.80;;;;;;6214278;23;20195;-86
2023/05/18 08:08:24;;;;;;;29.37;6.17;;;17.70;53.80;;;;;;6215342;23;20244;-86
2023/05/18 08:10:52;;;;;;;20.23;5.67;;;17.70;53.80;;;;;;6218110;23;20239;-87
2023/05/18 08:13:20;;;;;;;30.43;6.10;;;17.70;53.80;;;;;;6214527;23;20171;-87
2023/05/18 08:15:48;;;;;;;35.57;6.30;;;17.70;53.80;;;;;;6214313;23;20258;-87
2023/05/18 08:18:16;;;;;;;32.30;6.50;;;17.70;53.80;;;;;;6215030;23;20172;-89
2023/05/18 08:20:43;;;;;;;34.37;6.83;;;17.70;53.80;;;;;;6215519;23;20572;-87
2023/05/18 08:23:11;;;;;;;25.83;6.23;;;17.70;53.80;;;;;;6217900;23;20184;-90
2023/05/18 08:25:39;;;;;;;56.57;8.27;;;17.80;53.90;;;;;;6212749;23;20180;-86
2023/05/18 08:28:07;;;;;;;34.77;6.50;;;17.80;53.90;;;;;;6212216;23;20258;-87
2023/05/18 08:30:35;;;;;;;37.57;7.33;;;17.80;53.90;;;;;;6211871;23;20252;-86
2023/05/18 08:33:03;;;;;;;42.23;7.50;;;17.80;53.90;;;;;;6212373;23;20207;-86
2023/05/18 08:35:31;;;;;;;48.30;7.80;;;17.80;53.90;;;;;;6209920;23;20274;-86
2023/05/18 08:37:58;;;;;;;39.67;6.97;;;17.80;53.90;;;;;;6213399;23;20310;-86
2023/05/18 08:40:36;;;;;;;36.00;6.90;;;17.80;53.90;;;;;;6212178;23;20179;-86
2023/05/18 08:43:12;;;;;;;40.80;7.37;;;17.80;53.90;;;;;;6211385;23;20164;-86
2023/05/18 08:45:46;;;;;;;19.60;5.20;;;17.90;53.90;;;;;;6220014;23;20182;-85
2023/05/18 08:48:15;;;;;;;28.77;6.10;;;17.90;53.90;;;;;;6215827;23;20188;-86
2023/05/18 08:50:44;;;;;;;29.50;6.57;;;17.90;53.90;;;;;;6219536;23;20164;-85
2023/05/18 08:53:12;;;;;;;26.67;5.73;;;17.90;53.90;;;;;;6213525;23;20187;-86
2023/05/18 08:55:42;;;;;;;29.87;6.43;;;18.00;54.00;;;;;;6210579;23;20267;-85
2023/05/18 08:58:11;;;;;;;42.07;7.03;;;17.90;53.90;;;;;;6209380;23;20246;-86
2023/05/18 09:00:38;;;;;;;48.27;7.77;;;18.00;54.10;;;;;;6212590;23;20243;-85
2023/05/18 09:03:08;;;;;;;29.57;6.27;;;18.00;54.10;;;;;;6213487;23;20172;-86
2023/05/18 09:05:37;;;;;;;23.17;5.67;;;18.00;54.00;;;;;;6212386;23;20233;-85
2023/05/18 09:08:07;;;;;;;44.10;7.80;;;18.00;54.00;;;;;;6215096;23;20176;-86
2023/05/18 09:10:34;;;;;;;24.60;5.77;;;18.10;54.10;;;;;;6214304;23;20552;-90
2023/05/18 09:13:04;;;;;;;44.07;7.70;;;18.10;54.10;;;;;;6209886;23;20303;-86
2023/05/18 09:15:31;;;;;;;58.83;8.87;;;18.10;54.10;;;;;;6209196;23;20680;-86
2023/05/18 09:17:58;;;;;;;47.23;7.77;;;18.20;54.20;;;;;;6209134;23;20192;-86
2023/05/18 09:20:28;;;;;;;22.30;5.87;;;18.20;54.20;;;;;;6211021;23;20214;-86
2023/05/18 09:22:55;;;;;;;29.40;6.17;;;18.20;54.30;;;;;;6209311;23;20202;-86
2023/05/18 09:25:24;;;;;;;28.07;6.37;;;18.20;54.20;;;;;;6210521;23;20180;-85
2023/05/18 09:27:52;;;;;;;32.77;6.23;;;18.30;54.40;;;;;;6208597;23;20218;-86
2023/05/18 09:30:19;;;;;;;32.47;6.67;;;18.30;54.30;;;;;;6210296;23;20165;-87
2023/05/18 09:32:47;;;;;;;32.03;6.37;;;18.30;54.30;;;;;;6209759;23;20168;-86
2023/05/18 09:35:17;;;;;;;24.00;5.60;;;18.30;54.30;;;;;;6211322;23;20201;-85
2023/05/18 09:37:47;;;;;;;33.63;6.53;;;18.40;54.30;;;;;;6215500;23;20175;-85
2023/05/18 09:40:15;;;;;;;21.23;5.23;;;18.40;54.40;;;;;;6214596;23;20207;-85
2023/05/18 09:42:44;;;;;;;43.63;7.20;;;18.40;54.30;;;;;;6215506;23;20625;-86
2023/05/18 09:45:24;;;;;;;29.43;6.20;;;18.40;54.30;;;;;;6212714;23;20226;-86
2023/05/18 09:47:52;;;;;;;33.57;6.43;;;18.50;54.40;;;;;;6210396;23;20335;-85
2023/05/18 09:50:19;;;;;;;31.53;6.03;;;18.60;54.50;;;;;;6210215;23;20172;-87
2023/05/18 09:52:49;;;;;;;47.00;7.93;;;18.60;54.50;;;;;;6211973;23;20252;-85
2023/05/18 09:55:16;;;;;;;36.97;7.23;;;18.60;54.50;;;;;;6209749;23;20212;-86
2023/05/18 09:57:45;;;;;;;35.97;6.87;;;18.60;54.50;;;;;;6211049;23;20172;-85
2023/05/18 10:00:14;;;;;;;24.43;5.77;;;18.60;54.50;;;;;;6213469;23;20233;-86
2023/05/18 10:02:44;;;;;;;40.47;6.83;;;18.70;54.60;;;;;;6211983;23;20183;-85
2023/05/18 10:05:20;;;;;;;36.50;7.07;;;18.70;54.60;;;;;;6210894;23;20387;-86
2023/05/18 10:07:50;;;;;;;55.40;8.50;;;18.70;54.60;;;;;;6210413;23;20172;-86
2023/05/18 10:10:18;;;;;;;41.13;7.33;;;18.70;54.60;;;;;;6211034;23;20165;-86
2023/05/18 10:12:45;;;;;;;48.73;7.40;;;18.80;54.70;;;;;;6210017;23;20264;-85
2023/05/18 10:15:19;;;;;;;39.43;6.90;;;18.80;54.70;;;;;;6211136;23;20192;-85
2023/05/18 10:17:49;;;;;;;48.63;7.70;;;18.80;54.70;;;;;;6210507;23;20175;-86
2023/05/18 10:20:19;;;;;;;23.77;5.80;;;18.90;54.70;;;;;;6210194;23;20169;-89
2023/05/18 10:22:47;;;;;;;25.33;5.87;;;18.90;54.70;;;;;;6210669;23;20200;-90
2023/05/18 10:25:20;;;;;;;23.17;5.77;;;19.00;54.80;;;;;;6210409;23;20223;-86
2023/05/18 10:27:49;;;;;;;39.67;7.00;;;19.00;54.80;;;;;;6210656;23;20586;-88
2023/05/18 10:30:17;;;;;;;25.63;5.83;;;19.10;54.90;;;;;;6210620;23;20172;-87
2023/05/18 10:32:44;;;;;;;25.30;5.80;;;19.10;54.90;;;;;;6211313;23;20164;-86
2023/05/18 10:35:12;;;;;;;28.33;6.27;;;19.10;54.90;;;;;;6210780;23;20211;-86
2023/05/18 10:37:46;;;;;;;28.60;6.17;;;19.20;54.90;;;;;;6211075;23;20171;-85
2023/05/18 10:40:14;;;;;;;30.33;5.93;;;19.20;55.00;;;;;;6210813;23;20167;-86
2023/05/18 10:42:43;;;;;;;24.07;5.50;;;19.20;54.90;;;;;;6210628;23;20248;-89
2023/05/18 10:45:10;;;;;;;36.97;6.90;;;19.30;55.10;;;;;;6209867;23;20559;-86
2023/05/18 10:47:39;;;;;;;26.87;5.67;;;19.30;55.00;;;;;;6209614;23;20714;-90
2023/05/18 10:50:06;;;;;;;23.70;5.63;;;19.30;55.00;;;;;;6210008;23;20165;-85
2023/05/18 10:52:33;;;;;;;23.37;5.63;;;19.40;55.10;;;;;;6210926;23;20199;-87
2023/05/18 10:55:01;;;;;;;27.57;5.83;;;19.40;55.10;;;;;;6210055;23;20302;-86
2023/05/18 10:57:34;;;;;;;22.03;5.60;;;19.40;55.00;;;;;;6210172;23;20617;-86
2023/05/18 11:00:06;;;;;;;51.70;7.93;;;19.50;55.10;;;;;;6209662;23;20985;-87
2023/05/18 11:02:34;;;;;;;28.60;5.87;;;19.50;55.10;;;;;;6208875;23;20171;-88
2023/05/18 11:05:05;;;;;;;43.10;7.37;;;19.60;55.20;;;;;;6209483;23;20271;-85
2023/05/18 11:07:33;;;;;;;25.00;5.90;;;19.60;55.20;;;;;;6210699;23;20612;-86
2023/05/18 11:10:01;;;;;;;51.00;8.07;;;19.60;55.10;;;;;;6209082;23;20173;-86
2023/05/18 11:12:31;;;;;;;34.03;6.83;;;19.70;55.20;;;;;;6210620;23;20259;-88
2023/05/18 11:14:59;;;;;;;28.67;5.83;;;19.70;55.20;;;;;;6210630;23;20192;-87
2023/05/18 11:17:29;;;;;;;33.17;6.97;;;19.70;55.10;;;;;;6210313;23;20169;-89
2023/05/18 11:20:13;;;;;;;28.37;5.70;;;19.80;55.20;;;;;;6208887;23;20180;-93
2023/05/18 11:22:46;;;;;;;39.33;6.97;;;19.80;55.20;;;;;;6210112;23;20164;-91
2023/05/18 11:25:37;;;;;;;43.07;7.03;;;19.90;55.20;;;;;;6209841;23;20268;-89
2023/05/18 11:28:06;;;;;;;42.13;7.40;;;19.90;55.20;;;;;;6210127;23;20671;-87
2023/05/18 11:30:49;;;;;;;80.73;10.20;;;20.00;55.20;;;;;;6208963;23;20897;-89
2023/05/18 11:33:24;;;;;;;30.70;6.63;;;20.00;55.20;;;;;;6209844;23;20251;-89
2023/05/18 11:36:10;;;;;;;34.40;7.00;;;20.10;55.00;;;;;;6210524;23;20266;-86
2023/05/18 11:38:49;;;;;;;30.93;6.10;;;20.10;55.10;;;;;;6211180;23;20226;-87
2023/05/18 11:41:34;;;;;;;27.87;5.93;;;20.10;55.10;;;;;;6210386;23;20219;-87
2023/05/18 11:44:16;;;;;;;25.40;6.33;;;20.20;55.10;;;;;;6211036;23;20160;-86
2023/05/18 11:46:55;;;;;;;28.90;6.17;;;20.20;55.10;;;;;;6209084;23;20192;-86
2023/05/18 11:49:27;;;;;;;22.97;5.63;;;20.20;55.10;;;;;;6209967;23;20211;-87
2023/05/18 11:52:18;;;;;;;32.20;6.30;;;20.30;55.10;;;;;;6209559;23;20247;-87
2023/05/18 11:54:49;;;;;;;23.90;5.87;;;20.30;55.10;;;;;;6192071;23;20223;-88
2023/05/18 11:57:17;;;;;;;25.83;5.90;;;20.40;55.10;;;;;;6211093;23;20165;-87
2023/05/18 11:59:45;;;;;;;31.00;6.10;;;20.40;55.10;;;;;;6210606;23;20200;-86
2023/05/18 12:02:18;;;;;;;20.57;5.03;;;20.50;55.20;;;;;;6210080;23;20169;-89
2023/05/18 12:04:49;;;;;;;28.90;6.07;;;20.40;55.10;;;;;;6210972;23;20168;-87
2023/05/18 12:07:19;;;;;;;23.90;5.63;;;20.50;55.20;;;;;;6209321;23;20172;-87
2023/05/18 12:09:46;;;;;;;34.97;6.87;;;20.50;55.10;;;;;;6210593;23;20176;-86
2023/05/18 12:12:16;;;;;;;30.87;6.13;;;20.60;55.20;;;;;;6210192;23;20200;-87
2023/05/18 12:14:44;;;;;;;39.00;7.27;;;20.60;55.20;;;;;;6209832;23;20494;-86
2023/05/18 12:17:11;;;;;;;35.50;6.50;;;20.60;55.20;;;;;;6209929;23;20179;-87
2023/05/18 12:19:42;;;;;;;27.80;5.50;;;20.60;55.10;;;;;;6209373;23;20245;-88
2023/05/18 12:22:12;;;;;;;47.73;7.37;;;20.70;55.20;;;;;;6210053;23;20162;-86
2023/05/18 12:24:39;;;;;;;31.10;6.30;;;20.70;55.20;;;;;;6210292;23;20256;-86
2023/05/18 12:27:08;;;;;;;30.43;5.63;;;20.70;55.20;;;;;;6209376;23;20231;-87
2023/05/18 12:29:38;;;;;;;29.33;6.33;;;20.80;55.20;;;;;;6210149;23;20170;-91
2023/05/18 12:32:10;;;;;;;27.43;5.80;;;20.80;55.20;;;;;;6211237;23;20244;-93
2023/05/18 12:34:38;;;;;;;23.77;4.87;;;20.90;55.20;;;;;;6210976;23;20168;-92
2023/05/18 12:37:06;;;;;;;23.17;5.33;;;20.90;55.20;;;;;;6211415;23;20229;-92
2023/05/18 12:39:35;;;;;;;33.93;6.40;;;20.90;55.20;;;;;;6210955;23;20168;-89
2023/05/18 12:42:13;;;;;;;28.47;5.67;;;21.00;55.20;;;;;;6211365;23;20508;-88
2023/05/18 12:44:42;;;;;;;27.80;5.90;;;21.00;55.20;;;;;;6210787;23;20240;-88
2023/05/18 12:47:10;;;;;;;30.20;5.60;;;21.00;55.20;;;;;;6210455;23;20193;-86